PWSweather.com
Personal Weather Stations
Station Observations
KMDSOLOM1
solomons, Solomons, MD 20688

solomonsSolomons, MD 20688

Lat: 38.32, Lon: -76.45

Elevation: 5

Station Type:

http://www.act-us.info/weather

Latest ConditionsUpdated 9:25:07 PM EDT Saturday, Jul 20, 2019
Currently Today's Max Today's Min Today's Average
Temperature 90.3°F32.4°C 97.1°F36.2°C 83.2°F28.4°C 89.5°F31.9°C
Dew Point 80.9°F27.2°C 82.7°F28.2°C 77.8°F25.4°C 79.5°F26.4°C
Winds Calm Calm 13.0 mph -20.9 kmh - - 2.9 mph 4.7 kmh
Wind Gusts 2.0 mph3.2 kmh 15.0 mph24.1 kmh - -
Humidity 74% 86% 56% 73%
Pressure 29.78 in1008.5 mb 29.87 in1011.5 mb 29.77 in1008.1 mb -
Hour Temp Dew Point Humidity Winds Wind Gusts Pressure Precip Precip Rate Daily Precip Total
09:25 PM 90.3°F32.4°C 80.9°F27.2°C 74% Calm Calm 2.0 mph3.2 kmh 29.78 in1008.5 mb 0.00 in0.0 mm 0.00 in0.0 mm 0.00 in0.0 mm
09:20 PM 90.6°F32.6°C 81.2°F27.3°C 74% 1.0 mph S1.6 kmh S 2.0 mph3.2 kmh 29.79 in1008.8 mb 0.00 in0.0 mm 0.00 in0.0 mm 0.00 in0.0 mm
09:15 PM 90.7°F32.6°C 81.3°F27.4°C 74% Calm Calm -- 29.78 in1008.5 mb 0.00 in0.0 mm 0.00 in0.0 mm 0.00 in0.0 mm
09:10 PM 90.9°F32.7°C 82.3°F27.9°C 76% Calm Calm 2.0 mph3.2 kmh 29.78 in1008.5 mb 0.00 in0.0 mm 0.00 in0.0 mm 0.00 in0.0 mm
09:05 PM 91.1°F32.8°C 82.5°F28.1°C 76% Calm Calm 2.0 mph3.2 kmh 29.78 in1008.5 mb 0.00 in0.0 mm 0.00 in0.0 mm 0.00 in0.0 mm
09:00 PM 91.2°F32.9°C 81.8°F27.7°C 74% 1.0 mph S1.6 kmh S 2.0 mph3.2 kmh 29.78 in1008.5 mb 0.00 in0.0 mm 0.00 in0.0 mm 0.00 in0.0 mm
08:55 PM 91.4°F33.0°C 81.5°F27.5°C 73% Calm Calm 3.0 mph4.8 kmh 29.78 in1008.5 mb 0.00 in0.0 mm 0.00 in0.0 mm 0.00 in0.0 mm
08:50 PM 91.6°F33.1°C 81.3°F27.4°C 72% 2.0 mph S3.2 kmh S 3.0 mph4.8 kmh 29.78 in1008.5 mb 0.00 in0.0 mm 0.00 in0.0 mm 0.00 in0.0 mm
08:45 PM 91.8°F33.2°C 81.5°F27.5°C 72% 1.0 mph S1.6 kmh S 3.0 mph4.8 kmh 29.78 in1008.5 mb 0.00 in0.0 mm 0.00 in0.0 mm 0.00 in0.0 mm
08:40 PM 92.3°F33.5°C 82.4°F28.0°C 73% 2.0 mph S3.2 kmh S 4.0 mph6.4 kmh 29.77 in1008.1 mb 0.00 in0.0 mm 0.00 in0.0 mm 0.00 in0.0 mm
08:35 PM 92.5°F33.6°C 81.7°F27.6°C 71% 2.0 mph S3.2 kmh S 3.0 mph4.8 kmh 29.78 in1008.5 mb 0.00 in0.0 mm 0.00 in0.0 mm 0.00 in0.0 mm
08:30 PM 92.8°F33.8°C 82.0°F27.8°C 71% 1.0 mph S1.6 kmh S 2.0 mph3.2 kmh 29.78 in1008.5 mb 0.00 in0.0 mm 0.00 in0.0 mm 0.00 in0.0 mm
08:25 PM 93.1°F33.9°C 81.9°F27.7°C 70% 2.0 mph S3.2 kmh S 3.0 mph4.8 kmh 29.78 in1008.5 mb 0.00 in0.0 mm 0.00 in0.0 mm 0.00 in0.0 mm
08:20 PM 93.3°F34.1°C 81.6°F27.6°C 69% 1.0 mph S1.6 kmh S 2.0 mph3.2 kmh 29.78 in1008.5 mb 0.00 in0.0 mm 0.00 in0.0 mm 0.00 in0.0 mm
08:15 PM 93.6°F34.2°C 81.5°F27.5°C 68% 1.0 mph S1.6 kmh S 1.0 mph1.6 kmh 29.78 in1008.5 mb 0.00 in0.0 mm 0.00 in0.0 mm 0.00 in0.0 mm
08:10 PM 93.7°F34.3°C 81.1°F27.3°C 67% Calm Calm 4.0 mph6.4 kmh 29.78 in1008.5 mb 0.00 in0.0 mm 0.00 in0.0 mm 0.00 in0.0 mm
08:05 PM 93.9°F34.4°C 81.3°F27.4°C 67% 2.0 mph S3.2 kmh S 4.0 mph6.4 kmh 29.79 in1008.8 mb 0.00 in0.0 mm 0.00 in0.0 mm 0.00 in0.0 mm
08:00 PM 94.0°F34.4°C 81.4°F27.4°C 67% 2.0 mph S3.2 kmh S 3.0 mph4.8 kmh 29.78 in1008.5 mb 0.00 in0.0 mm 0.00 in0.0 mm 0.00 in0.0 mm
07:55 PM 94.2°F34.6°C 81.1°F27.3°C 66% 1.0 mph S1.6 kmh S 4.0 mph6.4 kmh 29.78 in1008.5 mb 0.00 in0.0 mm 0.00 in0.0 mm 0.00 in0.0 mm
07:50 PM 94.3°F34.6°C 81.2°F27.3°C 66% 1.0 mph S1.6 kmh S 3.0 mph4.8 kmh 29.78 in1008.5 mb 0.00 in0.0 mm 0.00 in0.0 mm 0.00 in0.0 mm
07:45 PM 94.2°F34.6°C 81.1°F27.3°C 66% 1.0 mph S1.6 kmh S 3.0 mph4.8 kmh 29.78 in1008.5 mb 0.00 in0.0 mm 0.00 in0.0 mm 0.00 in0.0 mm
07:40 PM 94.2°F34.6°C 81.1°F27.3°C 66% 1.0 mph S1.6 kmh S 4.0 mph6.4 kmh 29.78 in1008.5 mb 0.00 in0.0 mm 0.00 in0.0 mm 0.00 in0.0 mm
07:35 PM 94.2°F34.6°C 80.2°F26.8°C 64% 1.0 mph S1.6 kmh S 4.0 mph6.4 kmh 29.78 in1008.5 mb 0.00 in0.0 mm 0.00 in0.0 mm 0.00 in0.0 mm
07:30 PM 94.4°F34.7°C 80.4°F26.9°C 64% 4.0 mph S6.4 kmh S 4.0 mph6.4 kmh 29.78 in1008.5 mb 0.00 in0.0 mm 0.00 in0.0 mm 0.00 in0.0 mm
07:25 PM 94.5°F34.7°C 80.0°F26.7°C 63% 2.0 mph S3.2 kmh S 4.0 mph6.4 kmh 29.78 in1008.5 mb 0.00 in0.0 mm 0.00 in0.0 mm 0.00 in0.0 mm
07:20 PM 94.8°F34.9°C 80.2°F26.8°C 63% 2.0 mph S3.2 kmh S 4.0 mph6.4 kmh 29.78 in1008.5 mb 0.00 in0.0 mm 0.00 in0.0 mm 0.00 in0.0 mm
07:15 PM 94.9°F34.9°C 79.9°F26.6°C 62% 2.0 mph S3.2 kmh S 2.0 mph3.2 kmh 29.78 in1008.5 mb 0.00 in0.0 mm 0.00 in0.0 mm 0.00 in0.0 mm
07:10 PM 94.9°F34.9°C 80.3°F26.8°C 63% Calm Calm 3.0 mph4.8 kmh 29.78 in1008.5 mb 0.00 in0.0 mm 0.00 in0.0 mm 0.00 in0.0 mm
07:05 PM 94.4°F34.7°C 79.9°F26.6°C 63% Calm Calm 1.0 mph1.6 kmh 29.78 in1008.5 mb 0.00 in0.0 mm 0.00 in0.0 mm 0.00 in0.0 mm
07:00 PM 94.4°F34.7°C 80.4°F26.9°C 64% Calm Calm -- 29.78 in1008.5 mb 0.00 in0.0 mm 0.00 in0.0 mm 0.00 in0.0 mm
06:55 PM 94.4°F34.7°C 79.9°F26.6°C 63% 3.0 mph S4.8 kmh S 4.0 mph6.4 kmh 29.78 in1008.5 mb 0.00 in0.0 mm 0.00 in0.0 mm 0.00 in0.0 mm
06:50 PM 94.5°F34.7°C 80.0°F26.7°C 63% 2.0 mph S3.2 kmh S 3.0 mph4.8 kmh 29.78 in1008.5 mb 0.00 in0.0 mm 0.00 in0.0 mm 0.00 in0.0 mm
06:45 PM 95.1°F35.1°C 80.0°F26.7°C 62% 1.0 mph S1.6 kmh S 1.0 mph1.6 kmh 29.78 in1008.5 mb 0.00 in0.0 mm 0.00 in0.0 mm 0.00 in0.0 mm
06:40 PM 95.5°F35.3°C 80.4°F26.9°C 62% 1.0 mph S1.6 kmh S 4.0 mph6.4 kmh 29.78 in1008.5 mb 0.00 in0.0 mm 0.00 in0.0 mm 0.00 in0.0 mm
06:35 PM 95.4°F35.2°C 80.3°F26.8°C 62% 1.0 mph S1.6 kmh S 4.0 mph6.4 kmh 29.78 in1008.5 mb 0.00 in0.0 mm 0.00 in0.0 mm 0.00 in0.0 mm
06:30 PM 95.3°F35.2°C 80.2°F26.8°C 62% 2.0 mph S3.2 kmh S 2.0 mph3.2 kmh 29.78 in1008.5 mb 0.00 in0.0 mm 0.00 in0.0 mm 0.00 in0.0 mm
06:25 PM 95.2°F35.1°C 79.6°F26.4°C 61% 2.0 mph S3.2 kmh S 6.0 mph9.7 kmh 29.78 in1008.5 mb 0.00 in0.0 mm 0.00 in0.0 mm 0.00 in0.0 mm
06:20 PM 95.5°F35.3°C 79.4°F26.3°C 60% 5.0 mph S8.0 kmh S 6.0 mph9.7 kmh 29.78 in1008.5 mb 0.00 in0.0 mm 0.00 in0.0 mm 0.00 in0.0 mm
06:15 PM 95.8°F35.4°C 79.7°F26.5°C 60% 2.0 mph S3.2 kmh S 3.0 mph4.8 kmh 29.78 in1008.5 mb 0.00 in0.0 mm 0.00 in0.0 mm 0.00 in0.0 mm
06:10 PM 95.6°F35.3°C 80.0°F26.7°C 61% 2.0 mph S3.2 kmh S 6.0 mph9.7 kmh 29.78 in1008.5 mb 0.00 in0.0 mm 0.00 in0.0 mm 0.00 in0.0 mm
06:05 PM 95.8°F35.4°C 79.7°F26.5°C 60% 3.0 mph S4.8 kmh S 4.0 mph6.4 kmh 29.78 in1008.5 mb 0.00 in0.0 mm 0.00 in0.0 mm 0.00 in0.0 mm
06:00 PM 95.6°F35.3°C 79.5°F26.4°C 60% 3.0 mph S4.8 kmh S 3.0 mph4.8 kmh 29.78 in1008.5 mb 0.00 in0.0 mm 0.00 in0.0 mm 0.00 in0.0 mm
05:55 PM 95.2°F35.1°C 79.6°F26.4°C 61% 2.0 mph S3.2 kmh S 7.0 mph11.3 kmh 29.78 in1008.5 mb 0.00 in0.0 mm 0.00 in0.0 mm 0.00 in0.0 mm
05:50 PM 95.9°F35.5°C 78.8°F26.0°C 58% 3.0 mph S4.8 kmh S 6.0 mph9.7 kmh 29.78 in1008.5 mb 0.00 in0.0 mm 0.00 in0.0 mm 0.00 in0.0 mm
05:45 PM 96.4°F35.8°C 80.3°F26.8°C 60% 3.0 mph SSE4.8 kmh SSE 5.0 mph8.0 kmh 29.77 in1008.1 mb 0.00 in0.0 mm 0.00 in0.0 mm 0.00 in0.0 mm
05:40 PM 96.2°F35.7°C 80.6°F27.0°C 61% Calm Calm 7.0 mph11.3 kmh 29.77 in1008.1 mb 0.00 in0.0 mm 0.00 in0.0 mm 0.00 in0.0 mm
05:35 PM 95.6°F35.3°C 80.5°F26.9°C 62% 2.0 mph SE3.2 kmh SE 7.0 mph11.3 kmh 29.77 in1008.1 mb 0.00 in0.0 mm 0.00 in0.0 mm 0.00 in0.0 mm
05:30 PM 95.7°F35.4°C 80.6°F27.0°C 62% 3.0 mph SE4.8 kmh SE 4.0 mph6.4 kmh 29.77 in1008.1 mb 0.00 in0.0 mm 0.00 in0.0 mm 0.00 in0.0 mm
05:25 PM 95.8°F35.4°C 80.2°F26.8°C 61% 2.0 mph SE3.2 kmh SE 8.0 mph12.9 kmh 29.77 in1008.1 mb 0.00 in0.0 mm 0.00 in0.0 mm 0.00 in0.0 mm
05:20 PM 95.5°F35.3°C 79.9°F26.6°C 61% 7.0 mph ESE11.3 kmh ESE 8.0 mph12.9 kmh 29.77 in1008.1 mb 0.00 in0.0 mm 0.00 in0.0 mm 0.00 in0.0 mm
05:15 PM 95.7°F35.4°C 79.6°F26.4°C 60% 3.0 mph SE4.8 kmh SE 3.0 mph4.8 kmh 29.77 in1008.1 mb 0.00 in0.0 mm 0.00 in0.0 mm 0.00 in0.0 mm
05:10 PM 96.1°F35.6°C 80.5°F26.9°C 61% 5.0 mph SE8.0 kmh SE 8.0 mph12.9 kmh 29.77 in1008.1 mb 0.00 in0.0 mm 0.00 in0.0 mm 0.00 in0.0 mm
05:05 PM 96.2°F35.7°C 80.6°F27.0°C 61% 4.0 mph SE6.4 kmh SE 7.0 mph11.3 kmh 29.77 in1008.1 mb 0.00 in0.0 mm 0.00 in0.0 mm 0.00 in0.0 mm
05:00 PM 96.0°F35.6°C 79.9°F26.6°C 60% Calm Calm 1.0 mph1.6 kmh 29.78 in1008.5 mb 0.00 in0.0 mm 0.00 in0.0 mm 0.00 in0.0 mm
04:55 PM 95.4°F35.2°C 80.8°F27.1°C 63% 3.0 mph SE4.8 kmh SE 6.0 mph9.7 kmh 29.78 in1008.5 mb 0.00 in0.0 mm 0.00 in0.0 mm 0.00 in0.0 mm
04:50 PM 95.6°F35.3°C 79.5°F26.4°C 60% 1.0 mph ESE1.6 kmh ESE 4.0 mph6.4 kmh 29.77 in1008.1 mb 0.00 in0.0 mm 0.00 in0.0 mm 0.00 in0.0 mm
04:45 PM 96.2°F35.7°C 79.6°F26.4°C 59% Calm Calm 1.0 mph1.6 kmh 29.77 in1008.1 mb 0.00 in0.0 mm 0.00 in0.0 mm 0.00 in0.0 mm
04:40 PM 95.7°F35.4°C 80.6°F27.0°C 62% 4.0 mph ESE6.4 kmh ESE 5.0 mph8.0 kmh 29.77 in1008.1 mb 0.00 in0.0 mm 0.00 in0.0 mm 0.00 in0.0 mm
04:35 PM 96.1°F35.6°C 80.0°F26.7°C 60% 3.0 mph SE4.8 kmh SE 5.0 mph8.0 kmh 29.77 in1008.1 mb 0.00 in0.0 mm 0.00 in0.0 mm 0.00 in0.0 mm
04:30 PM 95.8°F35.4°C 78.7°F25.9°C 58% 1.0 mph SE1.6 kmh SE 1.0 mph1.6 kmh 29.77 in1008.1 mb 0.00 in0.0 mm 0.00 in0.0 mm 0.00 in0.0 mm
04:25 PM 95.7°F35.4°C 79.6°F26.4°C 60% 1.0 mph SE1.6 kmh SE 8.0 mph12.9 kmh 29.78 in1008.5 mb 0.00 in0.0 mm 0.00 in0.0 mm 0.00 in0.0 mm
04:20 PM 96.3°F35.7°C 79.1°F26.2°C 58% 3.0 mph SE4.8 kmh SE 8.0 mph12.9 kmh 29.77 in1008.1 mb 0.00 in0.0 mm 0.00 in0.0 mm 0.00 in0.0 mm
04:15 PM 96.2°F35.7°C 79.0°F26.1°C 58% 1.0 mph SE1.6 kmh SE 2.0 mph3.2 kmh 29.77 in1008.1 mb 0.00 in0.0 mm 0.00 in0.0 mm 0.00 in0.0 mm
04:10 PM 96.2°F35.7°C 80.1°F26.7°C 60% 8.0 mph S12.9 kmh S 8.0 mph12.9 kmh 29.77 in1008.1 mb 0.00 in0.0 mm 0.00 in0.0 mm 0.00 in0.0 mm
04:05 PM 95.7°F35.4°C 79.1°F26.2°C 59% 3.0 mph SE4.8 kmh SE 8.0 mph12.9 kmh 29.77 in1008.1 mb 0.00 in0.0 mm 0.00 in0.0 mm 0.00 in0.0 mm
04:00 PM 96.3°F35.7°C 79.1°F26.2°C 58% 2.0 mph SE3.2 kmh SE 3.0 mph4.8 kmh 29.78 in1008.5 mb 0.00 in0.0 mm 0.00 in0.0 mm 0.00 in0.0 mm
03:55 PM 96.2°F35.7°C 80.6°F27.0°C 61% 2.0 mph SSE3.2 kmh SSE 7.0 mph11.3 kmh 29.78 in1008.5 mb 0.00 in0.0 mm 0.00 in0.0 mm 0.00 in0.0 mm
03:50 PM 97.1°F36.2°C 80.4°F26.9°C 59% 2.0 mph SSW3.2 kmh SSW 7.0 mph11.3 kmh 29.78 in1008.5 mb 0.00 in0.0 mm 0.00 in0.0 mm 0.00 in0.0 mm
03:45 PM 96.7°F35.9°C 79.0°F26.1°C 57% 4.0 mph SW6.4 kmh SW 5.0 mph8.0 kmh 29.78 in1008.5 mb 0.00 in0.0 mm 0.00 in0.0 mm 0.00 in0.0 mm
03:40 PM 96.9°F36.1°C 78.6°F25.9°C 56% 7.0 mph SW11.3 kmh SW 8.0 mph12.9 kmh 29.78 in1008.5 mb 0.00 in0.0 mm 0.00 in0.0 mm 0.00 in0.0 mm
03:35 PM 97.0°F36.1°C 78.7°F25.9°C 56% 5.0 mph SSW8.0 kmh SSW 7.0 mph11.3 kmh 29.78 in1008.5 mb 0.00 in0.0 mm 0.00 in0.0 mm 0.00 in0.0 mm
03:30 PM 96.6°F35.9°C 78.3°F25.7°C 56% 5.0 mph S8.0 kmh S 7.0 mph11.3 kmh 29.78 in1008.5 mb 0.00 in0.0 mm 0.00 in0.0 mm 0.00 in0.0 mm
03:25 PM 97.1°F36.2°C 79.3°F26.3°C 57% 3.0 mph S4.8 kmh S 7.0 mph11.3 kmh 29.78 in1008.5 mb 0.00 in0.0 mm 0.00 in0.0 mm 0.00 in0.0 mm
03:20 PM 96.3°F35.7°C 78.6°F25.9°C 57% 2.0 mph SE3.2 kmh SE 6.0 mph9.7 kmh 29.78 in1008.5 mb 0.00 in0.0 mm 0.00 in0.0 mm 0.00 in0.0 mm
03:15 PM 95.8°F35.4°C 78.1°F25.6°C 57% 1.0 mph S1.6 kmh S 2.0 mph3.2 kmh 29.79 in1008.8 mb 0.00 in0.0 mm 0.00 in0.0 mm 0.00 in0.0 mm
03:10 PM 91.9°F33.3°C 80.3°F26.8°C 69% Calm Calm 10.0 mph16.1 kmh 29.79 in1008.8 mb 0.00 in0.0 mm 0.00 in0.0 mm 0.00 in0.0 mm
03:05 PM 90.8°F32.7°C 82.2°F27.9°C 76% 8.0 mph E12.9 kmh E 10.0 mph16.1 kmh 29.80 in1009.1 mb 0.00 in0.0 mm 0.00 in0.0 mm 0.00 in0.0 mm
03:00 PM 91.2°F32.9°C 82.2°F27.9°C 75% 8.0 mph ENE12.9 kmh ENE 8.0 mph12.9 kmh 29.80 in1009.1 mb 0.00 in0.0 mm 0.00 in0.0 mm 0.00 in0.0 mm
02:55 PM 91.6°F33.1°C 80.9°F27.2°C 71% 11.0 mph ENE17.7 kmh ENE 12.0 mph19.3 kmh 29.80 in1009.1 mb 0.00 in0.0 mm 0.00 in0.0 mm 0.00 in0.0 mm
02:50 PM 91.6°F33.1°C 82.6°F28.1°C 75% 6.0 mph NE9.7 kmh NE 11.0 mph17.7 kmh 29.80 in1009.1 mb 0.00 in0.0 mm 0.00 in0.0 mm 0.00 in0.0 mm
02:45 PM 91.3°F32.9°C 81.0°F27.2°C 72% 7.0 mph NE11.3 kmh NE 9.0 mph14.5 kmh 29.80 in1009.1 mb 0.00 in0.0 mm 0.00 in0.0 mm 0.00 in0.0 mm
02:40 PM 91.7°F33.2°C 81.0°F27.2°C 71% 11.0 mph ENE17.7 kmh ENE 12.0 mph19.3 kmh 29.80 in1009.1 mb 0.00 in0.0 mm 0.00 in0.0 mm 0.00 in0.0 mm
02:35 PM 91.2°F32.9°C 82.2°F27.9°C 75% 5.0 mph NE8.0 kmh NE 9.0 mph14.5 kmh 29.81 in1009.5 mb 0.00 in0.0 mm 0.00 in0.0 mm 0.00 in0.0 mm
02:30 PM 91.1°F32.8°C 80.8°F27.1°C 72% 8.0 mph ENE12.9 kmh ENE 9.0 mph14.5 kmh 29.81 in1009.5 mb 0.00 in0.0 mm 0.00 in0.0 mm 0.00 in0.0 mm
02:25 PM 90.8°F32.7°C 82.2°F27.9°C 76% 9.0 mph NE14.5 kmh NE 11.0 mph17.7 kmh 29.81 in1009.5 mb 0.00 in0.0 mm 0.00 in0.0 mm 0.00 in0.0 mm
02:20 PM 90.8°F32.7°C 82.2°F27.9°C 76% 5.0 mph NE8.0 kmh NE 9.0 mph14.5 kmh 29.81 in1009.5 mb 0.00 in0.0 mm 0.00 in0.0 mm 0.00 in0.0 mm
02:15 PM 90.5°F32.5°C 81.9°F27.7°C 76% 9.0 mph NE14.5 kmh NE 9.0 mph14.5 kmh 29.81 in1009.5 mb 0.00 in0.0 mm 0.00 in0.0 mm 0.00 in0.0 mm
02:10 PM 90.4°F32.4°C 80.6°F27.0°C 73% 11.0 mph NE17.7 kmh NE 15.0 mph24.1 kmh 29.81 in1009.5 mb 0.00 in0.0 mm 0.00 in0.0 mm 0.00 in0.0 mm
02:05 PM 90.9°F32.7°C 81.1°F27.3°C 73% 13.0 mph ENE20.9 kmh ENE 15.0 mph24.1 kmh 29.81 in1009.5 mb 0.00 in0.0 mm 0.00 in0.0 mm 0.00 in0.0 mm
02:00 PM 90.7°F32.6°C 81.3°F27.4°C 74% 10.0 mph E16.1 kmh E 10.0 mph16.1 kmh 29.82 in1009.8 mb 0.00 in0.0 mm 0.00 in0.0 mm 0.00 in0.0 mm
01:55 PM 90.1°F32.3°C 82.7°F28.2°C 79% 11.0 mph NE17.7 kmh NE 12.0 mph19.3 kmh 29.82 in1009.8 mb 0.00 in0.0 mm 0.00 in0.0 mm 0.00 in0.0 mm
01:50 PM 90.2°F32.3°C 82.0°F27.8°C 77% 7.0 mph NE11.3 kmh NE 7.0 mph11.3 kmh 29.82 in1009.8 mb 0.00 in0.0 mm 0.00 in0.0 mm 0.00 in0.0 mm
01:45 PM 90.6°F32.6°C 82.0°F27.8°C 76% 6.0 mph NE9.7 kmh NE 6.0 mph9.7 kmh 29.82 in1009.8 mb 0.00 in0.0 mm 0.00 in0.0 mm 0.00 in0.0 mm
01:40 PM 91.2°F32.9°C 81.8°F27.7°C 74% 6.0 mph NE9.7 kmh NE 7.0 mph11.3 kmh 29.82 in1009.8 mb 0.00 in0.0 mm 0.00 in0.0 mm 0.00 in0.0 mm
01:35 PM 91.5°F33.1°C 82.5°F28.1°C 75% 4.0 mph NE6.4 kmh NE 5.0 mph8.0 kmh 29.83 in1010.2 mb 0.00 in0.0 mm 0.00 in0.0 mm 0.00 in0.0 mm
01:30 PM 91.5°F33.1°C 81.6°F27.6°C 73% 3.0 mph NE4.8 kmh NE 4.0 mph6.4 kmh 29.83 in1010.2 mb 0.00 in0.0 mm 0.00 in0.0 mm 0.00 in0.0 mm
01:25 PM 91.1°F32.8°C 82.1°F27.8°C 75% 5.0 mph NE8.0 kmh NE 7.0 mph11.3 kmh 29.83 in1010.2 mb 0.00 in0.0 mm 0.00 in0.0 mm 0.00 in0.0 mm
01:20 PM 91.5°F33.1°C 82.0°F27.8°C 74% 7.0 mph NE11.3 kmh NE 7.0 mph11.3 kmh 29.83 in1010.2 mb 0.00 in0.0 mm 0.00 in0.0 mm 0.00 in0.0 mm
01:15 PM 93.9°F34.4°C 78.4°F25.8°C 61% 3.0 mph NW4.8 kmh NW 3.0 mph4.8 kmh 29.83 in1010.2 mb 0.00 in0.0 mm 0.00 in0.0 mm 0.00 in0.0 mm
01:10 PM 95.4°F35.2°C 79.8°F26.6°C 61% 2.0 mph W3.2 kmh W 4.0 mph6.4 kmh 29.84 in1010.5 mb 0.00 in0.0 mm 0.00 in0.0 mm 0.00 in0.0 mm
01:05 PM 95.2°F35.1°C 78.6°F25.9°C 59% 4.0 mph W6.4 kmh W 4.0 mph6.4 kmh 29.84 in1010.5 mb 0.00 in0.0 mm 0.00 in0.0 mm 0.00 in0.0 mm
01:00 PM 95.3°F35.2°C 78.7°F25.9°C 59% 3.0 mph W4.8 kmh W 4.0 mph6.4 kmh 29.84 in1010.5 mb 0.00 in0.0 mm 0.00 in0.0 mm 0.00 in0.0 mm
12:55 PM 94.9°F34.9°C 78.9°F26.1°C 60% 2.0 mph WSW3.2 kmh WSW 7.0 mph11.3 kmh 29.84 in1010.5 mb 0.00 in0.0 mm 0.00 in0.0 mm 0.00 in0.0 mm
12:50 PM 94.7°F34.8°C 78.7°F25.9°C 60% 2.0 mph WSW3.2 kmh WSW 7.0 mph11.3 kmh 29.85 in1010.8 mb 0.00 in0.0 mm 0.00 in0.0 mm 0.00 in0.0 mm
12:45 PM 94.5°F34.7°C 79.5°F26.4°C 62% 4.0 mph W6.4 kmh W 6.0 mph9.7 kmh 29.85 in1010.8 mb 0.00 in0.0 mm 0.00 in0.0 mm 0.00 in0.0 mm
12:40 PM 94.7°F34.8°C 79.2°F26.2°C 61% 2.0 mph W3.2 kmh W 4.0 mph6.4 kmh 29.85 in1010.8 mb 0.00 in0.0 mm 0.00 in0.0 mm 0.00 in0.0 mm
12:35 PM 94.5°F34.7°C 80.9°F27.2°C 65% 1.0 mph W1.6 kmh W 3.0 mph4.8 kmh 29.85 in1010.8 mb 0.00 in0.0 mm 0.00 in0.0 mm 0.00 in0.0 mm
12:30 PM 93.8°F34.3°C 79.3°F26.3°C 63% 3.0 mph W4.8 kmh W 3.0 mph4.8 kmh 29.86 in1011.2 mb 0.00 in0.0 mm 0.00 in0.0 mm 0.00 in0.0 mm
12:25 PM 94.6°F34.8°C 80.5°F26.9°C 64% 3.0 mph W4.8 kmh W 8.0 mph12.9 kmh 29.86 in1011.2 mb 0.00 in0.0 mm 0.00 in0.0 mm 0.00 in0.0 mm
12:20 PM 93.8°F34.3°C 79.8°F26.6°C 64% 4.0 mph W6.4 kmh W 6.0 mph9.7 kmh 29.86 in1011.2 mb 0.00 in0.0 mm 0.00 in0.0 mm 0.00 in0.0 mm
12:15 PM 93.5°F34.2°C 80.0°F26.7°C 65% 2.0 mph WSW3.2 kmh WSW 3.0 mph4.8 kmh 29.86 in1011.2 mb 0.00 in0.0 mm 0.00 in0.0 mm 0.00 in0.0 mm
12:10 PM 93.6°F34.2°C 80.5°F26.9°C 66% 7.0 mph WSW11.3 kmh WSW 8.0 mph12.9 kmh 29.87 in1011.5 mb 0.00 in0.0 mm 0.00 in0.0 mm 0.00 in0.0 mm
12:05 PM 93.5°F34.2°C 80.0°F26.7°C 65% 4.0 mph WSW6.4 kmh WSW 8.0 mph12.9 kmh 29.87 in1011.5 mb 0.00 in0.0 mm 0.00 in0.0 mm 0.00 in0.0 mm
12:00 PM 92.7°F33.7°C 79.7°F26.5°C 66% 4.0 mph WSW6.4 kmh WSW 5.0 mph8.0 kmh 29.87 in1011.5 mb 0.00 in0.0 mm 0.00 in0.0 mm 0.00 in0.0 mm
11:55 AM 92.9°F33.8°C 80.3°F26.8°C 67% 5.0 mph WSW8.0 kmh WSW 8.0 mph12.9 kmh 29.87 in1011.5 mb 0.00 in0.0 mm 0.00 in0.0 mm 0.00 in0.0 mm
11:50 AM 92.9°F33.8°C 79.9°F26.6°C 66% 4.0 mph WSW6.4 kmh WSW 8.0 mph12.9 kmh 29.87 in1011.5 mb 0.00 in0.0 mm 0.00 in0.0 mm 0.00 in0.0 mm
11:45 AM 92.4°F33.6°C 80.3°F26.8°C 68% 7.0 mph W11.3 kmh W 8.0 mph12.9 kmh 29.87 in1011.5 mb 0.00 in0.0 mm 0.00 in0.0 mm 0.00 in0.0 mm
11:40 AM 92.0°F33.3°C 79.0°F26.1°C 66% 7.0 mph W11.3 kmh W 8.0 mph12.9 kmh 29.87 in1011.5 mb 0.00 in0.0 mm 0.00 in0.0 mm 0.00 in0.0 mm
11:35 AM 92.2°F33.4°C 79.2°F26.2°C 66% 3.0 mph WSW4.8 kmh WSW 8.0 mph12.9 kmh 29.87 in1011.5 mb 0.00 in0.0 mm 0.00 in0.0 mm 0.00 in0.0 mm
11:30 AM 92.1°F33.4°C 79.6°F26.4°C 67% 7.0 mph WSW11.3 kmh WSW 8.0 mph12.9 kmh 29.87 in1011.5 mb 0.00 in0.0 mm 0.00 in0.0 mm 0.00 in0.0 mm
11:25 AM 92.7°F33.7°C 79.7°F26.5°C 66% 3.0 mph W4.8 kmh W 8.0 mph12.9 kmh 29.87 in1011.5 mb 0.00 in0.0 mm 0.00 in0.0 mm 0.00 in0.0 mm
11:20 AM 92.4°F33.6°C 79.9°F26.6°C 67% 5.0 mph WSW8.0 kmh WSW 8.0 mph12.9 kmh 29.87 in1011.5 mb 0.00 in0.0 mm 0.00 in0.0 mm 0.00 in0.0 mm
11:15 AM 92.0°F33.3°C 79.0°F26.1°C 66% 6.0 mph WSW9.7 kmh WSW 8.0 mph12.9 kmh 29.87 in1011.5 mb 0.00 in0.0 mm 0.00 in0.0 mm 0.00 in0.0 mm
11:10 AM 91.9°F33.3°C 78.9°F26.1°C 66% 6.0 mph W9.7 kmh W 11.0 mph17.7 kmh 29.87 in1011.5 mb 0.00 in0.0 mm 0.00 in0.0 mm 0.00 in0.0 mm
11:05 AM 91.6°F33.1°C 79.1°F26.2°C 67% 3.0 mph WSW4.8 kmh WSW 9.0 mph14.5 kmh 29.87 in1011.5 mb 0.00 in0.0 mm 0.00 in0.0 mm 0.00 in0.0 mm
11:00 AM 91.3°F32.9°C 78.8°F26.0°C 67% 4.0 mph WSW6.4 kmh WSW 5.0 mph8.0 kmh 29.87 in1011.5 mb 0.00 in0.0 mm 0.00 in0.0 mm 0.00 in0.0 mm
10:55 AM 91.4°F33.0°C 78.5°F25.8°C 66% 10.0 mph WSW16.1 kmh WSW 10.0 mph16.1 kmh 29.87 in1011.5 mb 0.00 in0.0 mm 0.00 in0.0 mm 0.00 in0.0 mm
10:50 AM 91.5°F33.1°C 78.1°F25.6°C 65% 5.0 mph WSW8.0 kmh WSW 8.0 mph12.9 kmh 29.87 in1011.5 mb 0.00 in0.0 mm 0.00 in0.0 mm 0.00 in0.0 mm
10:45 AM 91.3°F32.9°C 78.4°F25.8°C 66% 3.0 mph SW4.8 kmh SW 4.0 mph6.4 kmh 29.87 in1011.5 mb 0.00 in0.0 mm 0.00 in0.0 mm 0.00 in0.0 mm
10:40 AM 91.3°F32.9°C 79.7°F26.5°C 69% 3.0 mph WSW4.8 kmh WSW 10.0 mph16.1 kmh 29.87 in1011.5 mb 0.00 in0.0 mm 0.00 in0.0 mm 0.00 in0.0 mm
10:35 AM 90.9°F32.7°C 78.9°F26.1°C 68% 6.0 mph W9.7 kmh W 10.0 mph16.1 kmh 29.86 in1011.2 mb 0.00 in0.0 mm 0.00 in0.0 mm 0.00 in0.0 mm
10:30 AM 90.6°F32.6°C 78.6°F25.9°C 68% 2.0 mph WSW3.2 kmh WSW 4.0 mph6.4 kmh 29.86 in1011.2 mb 0.00 in0.0 mm 0.00 in0.0 mm 0.00 in0.0 mm
10:25 AM 90.5°F32.5°C 78.5°F25.8°C 68% 5.0 mph WSW8.0 kmh WSW 11.0 mph17.7 kmh 29.86 in1011.2 mb 0.00 in0.0 mm 0.00 in0.0 mm 0.00 in0.0 mm
10:20 AM 90.4°F32.4°C 78.0°F25.6°C 67% 11.0 mph SW17.7 kmh SW 11.0 mph17.7 kmh 29.86 in1011.2 mb 0.00 in0.0 mm 0.00 in0.0 mm 0.00 in0.0 mm
10:15 AM 90.3°F32.4°C 78.3°F25.7°C 68% 3.0 mph WSW4.8 kmh WSW 7.0 mph11.3 kmh 29.86 in1011.2 mb 0.00 in0.0 mm 0.00 in0.0 mm 0.00 in0.0 mm
10:10 AM 90.6°F32.6°C 79.0°F26.1°C 69% 3.0 mph WSW4.8 kmh WSW 9.0 mph14.5 kmh 29.86 in1011.2 mb 0.00 in0.0 mm 0.00 in0.0 mm 0.00 in0.0 mm
10:05 AM 90.4°F32.4°C 78.0°F25.6°C 67% 2.0 mph WSW3.2 kmh WSW 9.0 mph14.5 kmh 29.86 in1011.2 mb 0.00 in0.0 mm 0.00 in0.0 mm 0.00 in0.0 mm
10:00 AM 90.3°F32.4°C 79.2°F26.2°C 70% 6.0 mph SW9.7 kmh SW 9.0 mph14.5 kmh 29.86 in1011.2 mb 0.00 in0.0 mm 0.00 in0.0 mm 0.00 in0.0 mm
09:55 AM 90.1°F32.3°C 78.6°F25.9°C 69% 3.0 mph WSW4.8 kmh WSW 7.0 mph11.3 kmh 29.86 in1011.2 mb 0.00 in0.0 mm 0.00 in0.0 mm 0.00 in0.0 mm
09:50 AM 90.0°F32.2°C 78.9°F26.1°C 70% 2.0 mph WSW3.2 kmh WSW 7.0 mph11.3 kmh 29.86 in1011.2 mb 0.00 in0.0 mm 0.00 in0.0 mm 0.00 in0.0 mm
09:45 AM 89.9°F32.2°C 79.2°F26.2°C 71% 4.0 mph WSW6.4 kmh WSW 5.0 mph8.0 kmh 29.86 in1011.2 mb 0.00 in0.0 mm 0.00 in0.0 mm 0.00 in0.0 mm
09:40 AM 89.5°F31.9°C 78.4°F25.8°C 70% 3.0 mph SW4.8 kmh SW 5.0 mph8.0 kmh 29.85 in1010.8 mb 0.00 in0.0 mm 0.00 in0.0 mm 0.00 in0.0 mm
09:35 AM 89.6°F32.0°C 78.5°F25.8°C 70% 4.0 mph SW6.4 kmh SW 5.0 mph8.0 kmh 29.85 in1010.8 mb 0.00 in0.0 mm 0.00 in0.0 mm 0.00 in0.0 mm
09:30 AM 89.2°F31.8°C 78.1°F25.6°C 70% 3.0 mph SW4.8 kmh SW 4.0 mph6.4 kmh 29.86 in1011.2 mb 0.00 in0.0 mm 0.00 in0.0 mm 0.00 in0.0 mm
09:25 AM 88.8°F31.6°C 77.8°F25.4°C 70% 3.0 mph SW4.8 kmh SW 6.0 mph9.7 kmh 29.86 in1011.2 mb 0.00 in0.0 mm 0.00 in0.0 mm 0.00 in0.0 mm
09:20 AM 88.6°F31.4°C 78.0°F25.6°C 71% 3.0 mph WSW4.8 kmh WSW 5.0 mph8.0 kmh 29.86 in1011.2 mb 0.00 in0.0 mm 0.00 in0.0 mm 0.00 in0.0 mm
09:15 AM 88.4°F31.3°C 78.2°F25.7°C 72% 3.0 mph WSW4.8 kmh WSW 5.0 mph8.0 kmh 29.86 in1011.2 mb 0.00 in0.0 mm 0.00 in0.0 mm 0.00 in0.0 mm
09:10 AM 88.0°F31.1°C 78.3°F25.7°C 73% 4.0 mph SW6.4 kmh SW 5.0 mph8.0 kmh 29.85 in1010.8 mb 0.00 in0.0 mm 0.00 in0.0 mm 0.00 in0.0 mm
09:05 AM 87.7°F30.9°C 78.4°F25.8°C 74% 3.0 mph SW4.8 kmh SW 5.0 mph8.0 kmh 29.85 in1010.8 mb 0.00 in0.0 mm 0.00 in0.0 mm 0.00 in0.0 mm
09:00 AM 87.4°F30.8°C 78.1°F25.6°C 74% 2.0 mph SW3.2 kmh SW 3.0 mph4.8 kmh 29.85 in1010.8 mb 0.00 in0.0 mm 0.00 in0.0 mm 0.00 in0.0 mm
08:55 AM 87.4°F30.8°C 78.5°F25.8°C 75% 1.0 mph SW1.6 kmh SW 5.0 mph8.0 kmh 29.85 in1010.8 mb 0.00 in0.0 mm 0.00 in0.0 mm 0.00 in0.0 mm
08:50 AM 87.1°F30.6°C 77.8°F25.4°C 74% 1.0 mph SW1.6 kmh SW 5.0 mph8.0 kmh 29.85 in1010.8 mb 0.00 in0.0 mm 0.00 in0.0 mm 0.00 in0.0 mm
08:45 AM 87.0°F30.6°C 78.1°F25.6°C 75% 4.0 mph SW6.4 kmh SW 5.0 mph8.0 kmh 29.86 in1011.2 mb 0.00 in0.0 mm 0.00 in0.0 mm 0.00 in0.0 mm
08:40 AM 86.9°F30.5°C 78.0°F25.6°C 75% 3.0 mph SW4.8 kmh SW 6.0 mph9.7 kmh 29.85 in1010.8 mb 0.00 in0.0 mm 0.00 in0.0 mm 0.00 in0.0 mm
08:35 AM 86.9°F30.5°C 78.0°F25.6°C 75% 3.0 mph SW4.8 kmh SW 6.0 mph9.7 kmh 29.85 in1010.8 mb 0.00 in0.0 mm 0.00 in0.0 mm 0.00 in0.0 mm
08:30 AM 86.9°F30.5°C 78.4°F25.8°C 76% 5.0 mph SW8.0 kmh SW 5.0 mph8.0 kmh 29.85 in1010.8 mb 0.00 in0.0 mm 0.00 in0.0 mm 0.00 in0.0 mm
08:25 AM 86.8°F30.4°C 77.9°F25.5°C 75% 4.0 mph SW6.4 kmh SW 5.0 mph8.0 kmh 29.85 in1010.8 mb 0.00 in0.0 mm 0.00 in0.0 mm 0.00 in0.0 mm
08:20 AM 86.7°F30.4°C 78.6°F25.9°C 77% 2.0 mph SSW3.2 kmh SSW 5.0 mph8.0 kmh 29.86 in1011.2 mb 0.00 in0.0 mm 0.00 in0.0 mm 0.00 in0.0 mm
08:15 AM 86.5°F30.3°C 78.8°F26.0°C 78% 1.0 mph SSW1.6 kmh SSW 3.0 mph4.8 kmh 29.85 in1010.8 mb 0.00 in0.0 mm 0.00 in0.0 mm 0.00 in0.0 mm
08:10 AM 86.2°F30.1°C 78.5°F25.8°C 78% 2.0 mph SSW3.2 kmh SSW 5.0 mph8.0 kmh 29.85 in1010.8 mb 0.00 in0.0 mm 0.00 in0.0 mm 0.00 in0.0 mm
08:05 AM 85.8°F29.9°C 78.5°F25.8°C 79% 1.0 mph SSW1.6 kmh SSW 5.0 mph8.0 kmh 29.86 in1011.2 mb 0.00 in0.0 mm 0.00 in0.0 mm 0.00 in0.0 mm
08:00 AM 85.7°F29.8°C 78.4°F25.8°C 79% 2.0 mph SSW3.2 kmh SSW 4.0 mph6.4 kmh 29.86 in1011.2 mb 0.00 in0.0 mm 0.00 in0.0 mm 0.00 in0.0 mm
07:55 AM 85.5°F29.7°C 78.6°F25.9°C 80% 1.0 mph SSW1.6 kmh SSW 4.0 mph6.4 kmh 29.86 in1011.2 mb 0.00 in0.0 mm 0.00 in0.0 mm 0.00 in0.0 mm
07:50 AM 85.3°F29.6°C 78.4°F25.8°C 80% 3.0 mph SSW4.8 kmh SSW 4.0 mph6.4 kmh 29.86 in1011.2 mb 0.00 in0.0 mm 0.00 in0.0 mm 0.00 in0.0 mm
07:45 AM 85.0°F29.4°C 78.1°F25.6°C 80% 3.0 mph SSW4.8 kmh SSW 3.0 mph4.8 kmh 29.86 in1011.2 mb 0.00 in0.0 mm 0.00 in0.0 mm 0.00 in0.0 mm
07:40 AM 84.7°F29.3°C 78.6°F25.9°C 82% Calm Calm 3.0 mph4.8 kmh 29.86 in1011.2 mb 0.00 in0.0 mm 0.00 in0.0 mm 0.00 in0.0 mm
07:35 AM 84.6°F29.2°C 78.9°F26.1°C 83% 2.0 mph SSW3.2 kmh SSW 3.0 mph4.8 kmh 29.86 in1011.2 mb 0.00 in0.0 mm 0.00 in0.0 mm 0.00 in0.0 mm
07:30 AM 84.4°F29.1°C 78.7°F25.9°C 83% 2.0 mph SSW3.2 kmh SSW 3.0 mph4.8 kmh 29.86 in1011.2 mb 0.00 in0.0 mm 0.00 in0.0 mm 0.00 in0.0 mm
07:25 AM 84.2°F29.0°C 78.5°F25.8°C 83% 4.0 mph SSW6.4 kmh SSW 5.0 mph8.0 kmh 29.86 in1011.2 mb 0.00 in0.0 mm 0.00 in0.0 mm 0.00 in0.0 mm
07:20 AM 84.2°F29.0°C 78.8°F26.0°C 84% 4.0 mph SSW6.4 kmh SSW 5.0 mph8.0 kmh 29.85 in1010.8 mb 0.00 in0.0 mm 0.00 in0.0 mm 0.00 in0.0 mm
07:15 AM 84.2°F29.0°C 78.8°F26.0°C 84% 4.0 mph SSW6.4 kmh SSW 4.0 mph6.4 kmh 29.86 in1011.2 mb 0.00 in0.0 mm 0.00 in0.0 mm 0.00 in0.0 mm
07:10 AM 83.9°F28.8°C 78.6°F25.9°C 84% 2.0 mph SSW3.2 kmh SSW 5.0 mph8.0 kmh 29.86 in1011.2 mb 0.00 in0.0 mm 0.00 in0.0 mm 0.00 in0.0 mm
07:05 AM 83.8°F28.8°C 78.5°F25.8°C 84% 1.0 mph SSW1.6 kmh SSW 5.0 mph8.0 kmh 29.86 in1011.2 mb 0.00 in0.0 mm 0.00 in0.0 mm 0.00 in0.0 mm
07:00 AM 83.7°F28.7°C 78.4°F25.8°C 84% 2.0 mph SSW3.2 kmh SSW 3.0 mph4.8 kmh 29.86 in1011.2 mb 0.00 in0.0 mm 0.00 in0.0 mm 0.00 in0.0 mm
06:55 AM 83.7°F28.7°C 78.4°F25.8°C 84% 4.0 mph SSW6.4 kmh SSW 5.0 mph8.0 kmh 29.86 in1011.2 mb 0.00 in0.0 mm 0.00 in0.0 mm 0.00 in0.0 mm
06:50 AM 83.6°F28.7°C 78.3°F25.7°C 84% 4.0 mph SSW6.4 kmh SSW 4.0 mph6.4 kmh 29.86 in1011.2 mb 0.00 in0.0 mm 0.00 in0.0 mm 0.00 in0.0 mm
06:45 AM 83.6°F28.7°C 78.3°F25.7°C 84% 1.0 mph SSW1.6 kmh SSW 1.0 mph1.6 kmh 29.86 in1011.2 mb 0.00 in0.0 mm 0.00 in0.0 mm 0.00 in0.0 mm
06:40 AM 83.6°F28.7°C 78.3°F25.7°C 84% 2.0 mph SSW3.2 kmh SSW 6.0 mph9.7 kmh 29.86 in1011.2 mb 0.00 in0.0 mm 0.00 in0.0 mm 0.00 in0.0 mm
06:35 AM 83.6°F28.7°C 78.3°F25.7°C 84% 3.0 mph SSW4.8 kmh SSW 6.0 mph9.7 kmh 29.86 in1011.2 mb 0.00 in0.0 mm 0.00 in0.0 mm 0.00 in0.0 mm
06:30 AM 83.5°F28.6°C 78.2°F25.7°C 84% 5.0 mph SSW8.0 kmh SSW 5.0 mph8.0 kmh 29.86 in1011.2 mb 0.00 in0.0 mm 0.00 in0.0 mm 0.00 in0.0 mm
06:25 AM 83.4°F28.6°C 78.1°F25.6°C 84% 3.0 mph SSW4.8 kmh SSW 5.0 mph8.0 kmh 29.86 in1011.2 mb 0.00 in0.0 mm 0.00 in0.0 mm 0.00 in0.0 mm
06:20 AM 83.4°F28.6°C 78.1°F25.6°C 84% 3.0 mph SSW4.8 kmh SSW 5.0 mph8.0 kmh 29.86 in1011.2 mb 0.00 in0.0 mm 0.00 in0.0 mm 0.00 in0.0 mm
06:15 AM 83.4°F28.6°C 78.1°F25.6°C 84% 1.0 mph SSW1.6 kmh SSW 2.0 mph3.2 kmh 29.86 in1011.2 mb 0.00 in0.0 mm 0.00 in0.0 mm 0.00 in0.0 mm
06:10 AM 83.4°F28.6°C 78.1°F25.6°C 84% 1.0 mph SSW1.6 kmh SSW 4.0 mph6.4 kmh 29.86 in1011.2 mb 0.00 in0.0 mm 0.00 in0.0 mm 0.00 in0.0 mm
06:05 AM 83.5°F28.6°C 78.5°F25.8°C 85% 2.0 mph SSW3.2 kmh SSW 2.0 mph3.2 kmh 29.85 in1010.8 mb 0.00 in0.0 mm 0.00 in0.0 mm 0.00 in0.0 mm
06:00 AM 83.5°F28.6°C 78.2°F25.7°C 84% Calm Calm -- 29.85 in1010.8 mb 0.00 in0.0 mm 0.00 in0.0 mm 0.00 in0.0 mm
05:55 AM 83.4°F28.6°C 78.1°F25.6°C 84% Calm Calm 3.0 mph4.8 kmh 29.85 in1010.8 mb 0.00 in0.0 mm 0.00 in0.0 mm 0.00 in0.0 mm
05:50 AM 83.4°F28.6°C 78.1°F25.6°C 84% 1.0 mph SSW1.6 kmh SSW 3.0 mph4.8 kmh 29.85 in1010.8 mb 0.00 in0.0 mm 0.00 in0.0 mm 0.00 in0.0 mm
05:45 AM 83.4°F28.6°C 78.1°F25.6°C 84% 1.0 mph SSW1.6 kmh SSW 2.0 mph3.2 kmh 29.85 in1010.8 mb 0.00 in0.0 mm 0.00 in0.0 mm 0.00 in0.0 mm
05:40 AM 83.2°F28.4°C 77.9°F25.5°C 84% 3.0 mph SSW4.8 kmh SSW 7.0 mph11.3 kmh 29.85 in1010.8 mb 0.00 in0.0 mm 0.00 in0.0 mm 0.00 in0.0 mm
05:35 AM 83.2°F28.4°C 77.9°F25.5°C 84% 5.0 mph SSW8.0 kmh SSW 7.0 mph11.3 kmh 29.85 in1010.8 mb 0.00 in0.0 mm 0.00 in0.0 mm 0.00 in0.0 mm
05:30 AM 83.2°F28.4°C 78.2°F25.7°C 85% 3.0 mph SSW4.8 kmh SSW 4.0 mph6.4 kmh 29.84 in1010.5 mb 0.00 in0.0 mm 0.00 in0.0 mm 0.00 in0.0 mm
05:25 AM 83.2°F28.4°C 78.2°F25.7°C 85% Calm Calm 3.0 mph4.8 kmh 29.84 in1010.5 mb 0.00 in0.0 mm 0.00 in0.0 mm 0.00 in0.0 mm
05:20 AM 83.2°F28.4°C 78.2°F25.7°C 85% Calm Calm -- 29.84 in1010.5 mb 0.00 in0.0 mm 0.00 in0.0 mm 0.00 in0.0 mm
05:15 AM 83.2°F28.4°C 78.2°F25.7°C 85% Calm Calm -- 29.84 in1010.5 mb 0.00 in0.0 mm 0.00 in0.0 mm 0.00 in0.0 mm
05:10 AM 83.3°F28.5°C 78.3°F25.7°C 85% Calm Calm 2.0 mph3.2 kmh 29.84 in1010.5 mb 0.00 in0.0 mm 0.00 in0.0 mm 0.00 in0.0 mm
05:05 AM 83.4°F28.6°C 78.4°F25.8°C 85% Calm Calm 2.0 mph3.2 kmh 29.84 in1010.5 mb 0.00 in0.0 mm 0.00 in0.0 mm 0.00 in0.0 mm
05:00 AM 83.5°F28.6°C 78.5°F25.8°C 85% 2.0 mph SSW3.2 kmh SSW 2.0 mph3.2 kmh 29.84 in1010.5 mb 0.00 in0.0 mm 0.00 in0.0 mm 0.00 in0.0 mm
04:55 AM 83.5°F28.6°C 78.5°F25.8°C 85% 2.0 mph SSW3.2 kmh SSW 4.0 mph6.4 kmh 29.84 in1010.5 mb 0.00 in0.0 mm 0.00 in0.0 mm 0.00 in0.0 mm
04:50 AM 83.6°F28.7°C 78.6°F25.9°C 85% 3.0 mph SSW4.8 kmh SSW 4.0 mph6.4 kmh 29.84 in1010.5 mb 0.00 in0.0 mm 0.00 in0.0 mm 0.00 in0.0 mm
04:45 AM 83.6°F28.7°C 78.6°F25.9°C 85% 2.0 mph SSW3.2 kmh SSW 3.0 mph4.8 kmh 29.84 in1010.5 mb 0.00 in0.0 mm 0.00 in0.0 mm 0.00 in0.0 mm
04:40 AM 83.5°F28.6°C 78.5°F25.8°C 85% 3.0 mph SSW4.8 kmh SSW 6.0 mph9.7 kmh 29.84 in1010.5 mb 0.00 in0.0 mm 0.00 in0.0 mm 0.00 in0.0 mm
04:35 AM 83.5°F28.6°C 78.5°F25.8°C 85% 3.0 mph SSW4.8 kmh SSW 6.0 mph9.7 kmh 29.84 in1010.5 mb 0.00 in0.0 mm 0.00 in0.0 mm 0.00 in0.0 mm
04:30 AM 83.5°F28.6°C 78.5°F25.8°C 85% 3.0 mph SSW4.8 kmh SSW 3.0 mph4.8 kmh 29.83 in1010.2 mb 0.00 in0.0 mm 0.00 in0.0 mm 0.00 in0.0 mm
04:25 AM 83.5°F28.6°C 78.5°F25.8°C 85% 3.0 mph SSW4.8 kmh SSW 6.0 mph9.7 kmh 29.83 in1010.2 mb 0.00 in0.0 mm 0.00 in0.0 mm 0.00 in0.0 mm
04:20 AM 83.6°F28.7°C 78.6°F25.9°C 85% 3.0 mph SSW4.8 kmh SSW 5.0 mph8.0 kmh 29.83 in1010.2 mb 0.00 in0.0 mm 0.00 in0.0 mm 0.00 in0.0 mm
04:15 AM 83.6°F28.7°C 78.6°F25.9°C 85% 1.0 mph SSW1.6 kmh SSW 3.0 mph4.8 kmh 29.83 in1010.2 mb 0.00 in0.0 mm 0.00 in0.0 mm 0.00 in0.0 mm
04:10 AM 83.6°F28.7°C 78.6°F25.9°C 85% 6.0 mph SSW9.7 kmh SSW 6.0 mph9.7 kmh 29.83 in1010.2 mb 0.00 in0.0 mm 0.00 in0.0 mm 0.00 in0.0 mm
04:05 AM 83.7°F28.7°C 78.7°F25.9°C 85% 1.0 mph S1.6 kmh S 5.0 mph8.0 kmh 29.83 in1010.2 mb 0.00 in0.0 mm 0.00 in0.0 mm 0.00 in0.0 mm
04:00 AM 83.7°F28.7°C 78.7°F25.9°C 85% 3.0 mph S4.8 kmh S 3.0 mph4.8 kmh 29.83 in1010.2 mb 0.00 in0.0 mm 0.00 in0.0 mm 0.00 in0.0 mm
03:55 AM 83.7°F28.7°C 78.7°F25.9°C 85% 2.0 mph S3.2 kmh S 4.0 mph6.4 kmh 29.83 in1010.2 mb 0.00 in0.0 mm 0.00 in0.0 mm 0.00 in0.0 mm
03:50 AM 83.6°F28.7°C 78.6°F25.9°C 85% Calm Calm 4.0 mph6.4 kmh 29.83 in1010.2 mb 0.00 in0.0 mm 0.00 in0.0 mm 0.00 in0.0 mm
03:45 AM 83.6°F28.7°C 78.6°F25.9°C 85% 1.0 mph S1.6 kmh S 2.0 mph3.2 kmh 29.83 in1010.2 mb 0.00 in0.0 mm 0.00 in0.0 mm 0.00 in0.0 mm
03:40 AM 83.6°F28.7°C 79.0°F26.1°C 86% Calm Calm 6.0 mph9.7 kmh 29.83 in1010.2 mb 0.00 in0.0 mm 0.00 in0.0 mm 0.00 in0.0 mm
03:35 AM 83.7°F28.7°C 79.1°F26.2°C 86% 2.0 mph SSW3.2 kmh SSW 5.0 mph8.0 kmh 29.83 in1010.2 mb 0.00 in0.0 mm 0.00 in0.0 mm 0.00 in0.0 mm
03:30 AM 83.7°F28.7°C 79.1°F26.2°C 86% 2.0 mph SSW3.2 kmh SSW 2.0 mph3.2 kmh 29.83 in1010.2 mb 0.00 in0.0 mm 0.00 in0.0 mm 0.00 in0.0 mm
03:25 AM 83.7°F28.7°C 79.1°F26.2°C 86% 1.0 mph SSW1.6 kmh SSW 6.0 mph9.7 kmh 29.83 in1010.2 mb 0.00 in0.0 mm 0.00 in0.0 mm 0.00 in0.0 mm
03:20 AM 83.8°F28.8°C 79.2°F26.2°C 86% 1.0 mph S1.6 kmh S 6.0 mph9.7 kmh 29.83 in1010.2 mb 0.00 in0.0 mm 0.00 in0.0 mm 0.00 in0.0 mm
03:15 AM 83.9°F28.8°C 79.3°F26.3°C 86% 3.0 mph S4.8 kmh S 5.0 mph8.0 kmh 29.83 in1010.2 mb 0.00 in0.0 mm 0.00 in0.0 mm 0.00 in0.0 mm
03:10 AM 84.0°F28.9°C 79.4°F26.3°C 86% 4.0 mph S6.4 kmh S 6.0 mph9.7 kmh 29.83 in1010.2 mb 0.00 in0.0 mm 0.00 in0.0 mm 0.00 in0.0 mm
03:05 AM 84.0°F28.9°C 79.0°F26.1°C 85% 1.0 mph S1.6 kmh S 6.0 mph9.7 kmh 29.83 in1010.2 mb 0.00 in0.0 mm 0.00 in0.0 mm 0.00 in0.0 mm
03:00 AM 84.1°F28.9°C 79.1°F26.2°C 85% 3.0 mph S4.8 kmh S 5.0 mph8.0 kmh 29.83 in1010.2 mb 0.00 in0.0 mm 0.00 in0.0 mm 0.00 in0.0 mm
02:55 AM 84.0°F28.9°C 79.0°F26.1°C 85% 2.0 mph S3.2 kmh S 6.0 mph9.7 kmh 29.83 in1010.2 mb 0.00 in0.0 mm 0.00 in0.0 mm 0.00 in0.0 mm
02:50 AM 84.1°F28.9°C 79.1°F26.2°C 85% 3.0 mph S4.8 kmh S 6.0 mph9.7 kmh 29.83 in1010.2 mb 0.00 in0.0 mm 0.00 in0.0 mm 0.00 in0.0 mm
02:45 AM 84.2°F29.0°C 79.2°F26.2°C 85% 3.0 mph S4.8 kmh S 3.0 mph4.8 kmh 29.83 in1010.2 mb 0.00 in0.0 mm 0.00 in0.0 mm 0.00 in0.0 mm
02:40 AM 84.3°F29.1°C 79.3°F26.3°C 85% 4.0 mph S6.4 kmh S 8.0 mph12.9 kmh 29.83 in1010.2 mb 0.00 in0.0 mm 0.00 in0.0 mm 0.00 in0.0 mm
02:35 AM 84.3°F29.1°C 79.3°F26.3°C 85% 1.0 mph S1.6 kmh S 8.0 mph12.9 kmh 29.83 in1010.2 mb 0.00 in0.0 mm 0.00 in0.0 mm 0.00 in0.0 mm
02:30 AM 84.4°F29.1°C 79.0°F26.1°C 84% 3.0 mph S4.8 kmh S 5.0 mph8.0 kmh 29.83 in1010.2 mb 0.00 in0.0 mm 0.00 in0.0 mm 0.00 in0.0 mm
02:25 AM 84.4°F29.1°C 79.0°F26.1°C 84% 3.0 mph S4.8 kmh S 6.0 mph9.7 kmh 29.83 in1010.2 mb 0.00 in0.0 mm 0.00 in0.0 mm 0.00 in0.0 mm
02:20 AM 84.4°F29.1°C 79.0°F26.1°C 84% 2.0 mph SSE3.2 kmh SSE 6.0 mph9.7 kmh 29.83 in1010.2 mb 0.00 in0.0 mm 0.00 in0.0 mm 0.00 in0.0 mm
02:15 AM 84.5°F29.2°C 79.1°F26.2°C 84% 2.0 mph SSE3.2 kmh SSE 5.0 mph8.0 kmh 29.83 in1010.2 mb 0.00 in0.0 mm 0.00 in0.0 mm 0.00 in0.0 mm
02:10 AM 84.6°F29.2°C 79.2°F26.2°C 84% 1.0 mph S1.6 kmh S 7.0 mph11.3 kmh 29.83 in1010.2 mb 0.00 in0.0 mm 0.00 in0.0 mm 0.00 in0.0 mm
02:05 AM 84.5°F29.2°C 79.1°F26.2°C 84% 2.0 mph S3.2 kmh S 6.0 mph9.7 kmh 29.83 in1010.2 mb 0.00 in0.0 mm 0.00 in0.0 mm 0.00 in0.0 mm
02:00 AM 84.5°F29.2°C 79.1°F26.2°C 84% 1.0 mph S1.6 kmh S 1.0 mph1.6 kmh 29.83 in1010.2 mb 0.00 in0.0 mm 0.00 in0.0 mm 0.00 in0.0 mm
01:55 AM 84.5°F29.2°C 79.1°F26.2°C 84% 1.0 mph SSE1.6 kmh SSE 7.0 mph11.3 kmh 29.83 in1010.2 mb 0.00 in0.0 mm 0.00 in0.0 mm 0.00 in0.0 mm
01:50 AM 84.5°F29.2°C 79.5°F26.4°C 85% 1.0 mph S1.6 kmh S 5.0 mph8.0 kmh 29.83 in1010.2 mb 0.00 in0.0 mm 0.00 in0.0 mm 0.00 in0.0 mm
01:45 AM 84.5°F29.2°C 79.5°F26.4°C 85% 3.0 mph S4.8 kmh S 3.0 mph4.8 kmh 29.83 in1010.2 mb 0.00 in0.0 mm 0.00 in0.0 mm 0.00 in0.0 mm
01:40 AM 84.5°F29.2°C 79.5°F26.4°C 85% 1.0 mph SE1.6 kmh SE 6.0 mph9.7 kmh 29.83 in1010.2 mb 0.00 in0.0 mm 0.00 in0.0 mm 0.00 in0.0 mm
01:35 AM 84.4°F29.1°C 79.4°F26.3°C 85% Calm Calm 6.0 mph9.7 kmh 29.83 in1010.2 mb 0.00 in0.0 mm 0.00 in0.0 mm 0.00 in0.0 mm
01:30 AM 84.4°F29.1°C 79.4°F26.3°C 85% 1.0 mph SE1.6 kmh SE 2.0 mph3.2 kmh 29.83 in1010.2 mb 0.00 in0.0 mm 0.00 in0.0 mm 0.00 in0.0 mm
01:25 AM 84.5°F29.2°C 79.1°F26.2°C 84% 3.0 mph SSE4.8 kmh SSE 7.0 mph11.3 kmh 29.83 in1010.2 mb 0.00 in0.0 mm 0.00 in0.0 mm 0.00 in0.0 mm
01:20 AM 84.5°F29.2°C 79.1°F26.2°C 84% 1.0 mph SE1.6 kmh SE 7.0 mph11.3 kmh 29.83 in1010.2 mb 0.00 in0.0 mm 0.00 in0.0 mm 0.00 in0.0 mm
01:15 AM 84.5°F29.2°C 79.1°F26.2°C 84% 7.0 mph SE11.3 kmh SE 7.0 mph11.3 kmh 29.83 in1010.2 mb 0.00 in0.0 mm 0.00 in0.0 mm 0.00 in0.0 mm
01:10 AM 84.6°F29.2°C 79.2°F26.2°C 84% 1.0 mph SE1.6 kmh SE 4.0 mph6.4 kmh 29.84 in1010.5 mb 0.00 in0.0 mm 0.00 in0.0 mm 0.00 in0.0 mm
01:05 AM 84.7°F29.3°C 79.3°F26.3°C 84% 2.0 mph SE3.2 kmh SE 4.0 mph6.4 kmh 29.83 in1010.2 mb 0.00 in0.0 mm 0.00 in0.0 mm 0.00 in0.0 mm
01:00 AM 84.7°F29.3°C 79.3°F26.3°C 84% 3.0 mph SSE4.8 kmh SSE 3.0 mph4.8 kmh 29.83 in1010.2 mb 0.00 in0.0 mm 0.00 in0.0 mm 0.00 in0.0 mm
12:55 AM 84.7°F29.3°C 79.3°F26.3°C 84% Calm Calm 7.0 mph11.3 kmh 29.83 in1010.2 mb 0.00 in0.0 mm 0.00 in0.0 mm 0.00 in0.0 mm
12:50 AM 84.8°F29.3°C 79.4°F26.3°C 84% 3.0 mph SE4.8 kmh SE 7.0 mph11.3 kmh 29.83 in1010.2 mb 0.00 in0.0 mm 0.00 in0.0 mm 0.00 in0.0 mm
12:45 AM 84.9°F29.4°C 79.5°F26.4°C 84% Calm Calm 2.0 mph3.2 kmh 29.83 in1010.2 mb 0.00 in0.0 mm 0.00 in0.0 mm 0.00 in0.0 mm
12:40 AM 84.9°F29.4°C 79.5°F26.4°C 84% 3.0 mph SE4.8 kmh SE 5.0 mph8.0 kmh 29.83 in1010.2 mb 0.00 in0.0 mm 0.00 in0.0 mm 0.00 in0.0 mm
12:35 AM 85.0°F29.4°C 79.6°F26.4°C 84% Calm Calm 5.0 mph8.0 kmh 29.83 in1010.2 mb 0.00 in0.0 mm 0.00 in0.0 mm 0.00 in0.0 mm
12:30 AM 85.0°F29.4°C 79.6°F26.4°C 84% 2.0 mph SE3.2 kmh SE 4.0 mph6.4 kmh 29.83 in1010.2 mb 0.00 in0.0 mm 0.00 in0.0 mm 0.00 in0.0 mm
12:25 AM 85.2°F29.6°C 79.8°F26.6°C 84% 1.0 mph SE1.6 kmh SE 6.0 mph9.7 kmh 29.84 in1010.5 mb 0.00 in0.0 mm 0.00 in0.0 mm 0.00 in0.0 mm
12:20 AM 85.2°F29.6°C 79.5°F26.4°C 83% 2.0 mph SE3.2 kmh SE 6.0 mph9.7 kmh 29.84 in1010.5 mb 0.00 in0.0 mm 0.00 in0.0 mm 0.00 in0.0 mm
12:15 AM 85.3°F29.6°C 79.6°F26.4°C 83% 2.0 mph SE3.2 kmh SE 3.0 mph4.8 kmh 29.84 in1010.5 mb 0.00 in0.0 mm 0.00 in0.0 mm 0.00 in0.0 mm
12:10 AM 85.3°F29.6°C 79.6°F26.4°C 83% 1.0 mph SE1.6 kmh SE 5.0 mph8.0 kmh 29.84 in1010.5 mb 0.00 in0.0 mm 0.00 in0.0 mm 0.00 in0.0 mm
12:05 AM 85.4°F29.7°C 79.7°F26.5°C 83% 3.0 mph SE4.8 kmh SE 5.0 mph8.0 kmh 29.84 in1010.5 mb 0.00 in0.0 mm 0.00 in0.0 mm 0.00 in0.0 mm
12:00 AM 85.4°F29.7°C 79.7°F26.5°C 83% 3.0 mph SE4.8 kmh SE 3.0 mph4.8 kmh 29.84 in1010.5 mb 0.00 in0.0 mm 0.00 in0.0 mm 0.00 in0.0 mm